Time;durP1;ratioP1;P1;durP2;ratioP2;P2;SDS_P1;SDS_P2;PMS_P1;PMS_P2;Temp;Humidity;BMP_temperature;BMP_pressure;BME280_temperature;BME280_humidity;BME280_pressure;Samples;Min_cycle;Max_cycle;Signal;HPM_P1;HPM_P2
2022/10/03 00:01:10;;;;;;;;;;;11.80;99.90;;;;;;5019434;28;19918;-81
2022/10/03 00:03:42;;;;;;;;;;;11.80;99.90;;;;;;5019207;28;19910;-81
2022/10/03 00:06:10;;;;;;;;;;;11.80;99.90;;;;;;5018276;28;19920;-81
2022/10/03 00:08:38;;;;;;;;;;;11.80;99.90;;;;;;5018832;28;19910;-82
2022/10/03 00:11:18;;;;;;;;;;;11.70;99.90;;;;;;5016605;28;19909;-82
2022/10/03 00:13:52;;;;;;;;;;;11.70;99.90;;;;;;5018453;28;20004;-81
2022/10/03 00:16:20;;;;;;;;;;;11.70;99.90;;;;;;5016499;28;20343;-82
2022/10/03 00:18:57;;;;;;;;;;;11.60;99.90;;;;;;5018056;28;19917;-83
2022/10/03 00:21:29;;;;;;;;;;;11.60;99.90;;;;;;5016444;28;19910;-82
2022/10/03 00:23:57;;;;;;;;;;;11.60;99.90;;;;;;5017249;28;19910;-82
2022/10/03 00:26:41;;;;;;;;;;;11.60;99.90;;;;;;5017699;28;19909;-82
2022/10/03 00:29:12;;;;;;;;;;;11.60;99.90;;;;;;5016875;28;19913;-81
2022/10/03 00:31:38;;;;;;;;;;;11.60;99.90;;;;;;5017155;28;20129;-82
2022/10/03 00:34:22;;;;;;;;;;;11.50;99.90;;;;;;5016569;28;19917;-82
2022/10/03 00:37:08;;;;;;;;;;;11.50;99.90;;;;;;5015880;28;19910;-82
2022/10/03 00:39:43;;;;;;;;;;;11.60;99.90;;;;;;4995691;28;19916;-82
2022/10/03 00:42:27;;;;;;;;;;;11.50;99.90;;;;;;5027737;28;19921;-82
2022/10/03 00:45:21;;;;;;;;;;;11.50;99.90;;;;;;5036822;28;19909;-81
2022/10/03 00:48:05;;;;;;;;;;;11.50;99.90;;;;;;5007384;28;19913;-81
2022/10/03 00:50:46;;;;;;;;;;;11.50;99.90;;;;;;5037579;28;19909;-81
2022/10/03 00:53:12;;;;;;;;;;;11.60;99.90;;;;;;5035263;28;20407;-83
2022/10/03 00:55:43;;;;;;;;;;;11.60;99.90;;;;;;5034792;28;20391;-83
2022/10/03 00:58:28;;;;;;;;;;;11.60;99.90;;;;;;5036432;28;19964;-80
2022/10/03 01:00:57;;;;;;;;;;;11.60;99.90;;;;;;5034777;28;19909;-81
2022/10/03 01:03:27;;;;;;;;;;;11.70;99.90;;;;;;5026376;28;19909;-83
2022/10/03 01:06:06;;;;;;;;;;;11.60;99.90;;;;;;5031514;28;19947;-81
2022/10/03 01:08:46;;;;;;;;;;;11.60;99.90;;;;;;5023335;28;19909;-82
2022/10/03 01:11:11;;;;;;;;;;;11.60;99.90;;;;;;5015760;28;19909;-80
2022/10/03 01:13:46;;;;;;;;;;;11.60;99.90;;;;;;5035320;28;19960;-81
2022/10/03 01:16:27;;;;;;;;;;;11.60;99.90;;;;;;5035698;28;19910;-81
2022/10/03 01:19:12;;;;;;;;;;;11.60;99.90;;;;;;5037289;28;19910;-82
2022/10/03 01:22:01;;;;;;;;;;;11.60;99.90;;;;;;5035370;28;19917;-82
2022/10/03 01:24:29;;;;;;;;;;;11.60;99.90;;;;;;5036715;28;19936;-82
2022/10/03 01:27:00;;;;;;;;;;;11.60;99.90;;;;;;5036581;28;20372;-82
2022/10/03 01:32:37;;;;;;;;;;;11.70;99.90;;;;;;5034996;28;19958;-81
2022/10/03 01:35:04;;;;;;;;;;;11.70;99.90;;;;;;5035348;28;20071;-82
2022/10/03 01:37:38;;;;;;;;;;;11.70;99.90;;;;;;5034813;28;19909;-82
2022/10/03 01:40:03;;;;;;;;;;;11.70;99.90;;;;;;5033688;28;19916;-82
2022/10/03 01:42:36;;;;;;;;;;;11.70;99.90;;;;;;5073363;22;19925;-86
2022/10/03 01:45:01;;;;;;;;;;;11.70;99.90;;;;;;5052380;28;19920;-84
2022/10/03 01:47:33;;;;;;;;;;;11.80;99.90;;;;;;5051797;28;19913;-84
2022/10/03 01:50:12;;;;;;;;;;;11.70;99.90;;;;;;5052126;28;20053;-84
2022/10/03 01:52:44;;;;;;;;;;;11.70;99.90;;;;;;5068936;28;19935;-85
2022/10/03 01:55:22;;;;;;;;;;;11.70;99.90;;;;;;5072086;28;19920;-84
2022/10/03 01:57:52;;;;;;;;;;;11.70;99.90;;;;;;5071912;28;20383;-84
2022/10/03 02:00:24;;;;;;;;;;;11.70;99.90;;;;;;5073468;28;19962;-85
2022/10/03 02:03:08;;;;;;;;;;;11.70;99.90;;;;;;5071807;28;19912;-84
2022/10/03 02:05:34;;;;;;;;;;;11.70;99.90;;;;;;5071771;28;19912;-84
2022/10/03 02:08:04;;;;;;;;;;;11.70;99.90;;;;;;5071750;28;19908;-84
2022/10/03 02:10:48;;;;;;;;;;;11.70;99.90;;;;;;5073556;28;19915;-84
2022/10/03 02:13:21;;;;;;;;;;;11.70;99.90;;;;;;5071739;28;19919;-84
2022/10/03 02:15:53;;;;;;;;;;;11.70;99.90;;;;;;5071833;28;19958;-85
2022/10/03 02:18:27;;;;;;;;;;;11.70;99.90;;;;;;5071881;28;19916;-84
2022/10/03 02:21:04;;;;;;;;;;;11.70;99.90;;;;;;5073128;28;19908;-85
2022/10/03 02:23:33;;;;;;;;;;;11.70;99.90;;;;;;5073267;28;19905;-84
2022/10/03 02:26:07;;;;;;;;;;;11.70;99.90;;;;;;5071533;28;19909;-84
2022/10/03 02:29:01;;;;;;;;;;;11.70;99.90;;;;;;5071673;28;19909;-85
2022/10/03 02:31:28;;;;;;;;;;;11.60;99.90;;;;;;5071607;28;19919;-84
2022/10/03 02:33:53;;;;;;;;;;;11.60;99.90;;;;;;5076066;28;19954;-83
2022/10/03 02:36:31;;;;;;;;;;;11.60;99.90;;;;;;5075607;28;20338;-84
2022/10/03 02:39:15;;;;;;;;;;;11.60;99.90;;;;;;5075901;28;20387;-84
2022/10/03 02:41:55;;;;;;;;;;;11.60;99.90;;;;;;5075615;28;19920;-84
2022/10/03 02:44:39;;;;;;;;;;;11.60;99.90;;;;;;5075769;28;20257;-84
2022/10/03 02:47:43;;;;;;;;;;;11.60;99.90;;;;;;5075415;28;19909;-84
2022/10/03 02:50:15;;;;;;;;;;;11.60;99.90;;;;;;4995084;28;19917;-84
2022/10/03 02:52:49;;;;;;;;;;;11.70;99.90;;;;;;4978610;28;20369;-84
2022/10/03 02:55:34;;;;;;;;;;;11.70;99.90;;;;;;5040755;28;20303;-84
2022/10/03 02:58:00;;;;;;;;;;;11.70;99.90;;;;;;5075383;28;19950;-85
2022/10/03 03:00:54;;;;;;;;;;;11.70;99.90;;;;;;5063210;28;19912;-83
2022/10/03 03:03:38;;;;;;;;;;;11.70;99.90;;;;;;5065612;28;19952;-84
2022/10/03 03:06:06;;;;;;;;;;;11.70;99.90;;;;;;5055031;28;19940;-84
2022/10/03 03:08:35;;;;;;;;;;;11.70;99.90;;;;;;5064776;28;19954;-84
2022/10/03 03:11:05;;;;;;;;;;;11.70;99.90;;;;;;5074716;28;19967;-84
2022/10/03 03:13:49;;;;;;;;;;;11.70;99.90;;;;;;5075087;28;19917;-85
2022/10/03 03:16:39;;;;;;;;;;;11.70;99.90;;;;;;5076218;28;19909;-84
2022/10/03 03:19:17;;;;;;;;;;;11.70;99.90;;;;;;5074937;28;19929;-84
2022/10/03 03:21:57;;;;;;;;;;;11.70;99.90;;;;;;5074732;28;19935;-84
2022/10/03 03:24:41;;;;;;;;;;;11.70;99.90;;;;;;5076278;28;20003;-85
2022/10/03 03:27:12;;;;;;;;;;;11.70;99.90;;;;;;5075674;28;19915;-85
2022/10/03 03:29:38;;;;;;;;;;;11.70;99.90;;;;;;5074495;28;20011;-83
2022/10/03 03:32:18;;;;;;;;;;;11.70;99.90;;;;;;5074639;28;19974;-84
2022/10/03 03:34:56;;;;;;;;;;;11.70;99.90;;;;;;5075911;28;19962;-84
2022/10/03 03:37:45;;;;;;;;;;;11.70;99.90;;;;;;5074228;28;19909;-84
2022/10/03 03:40:10;;;;;;;;;;;11.70;99.90;;;;;;5074625;28;19909;-85
2022/10/03 03:42:47;;;;;;;;;;;11.70;99.90;;;;;;5074115;28;19922;-84
2022/10/03 03:45:22;;;;;;;;;;;11.60;99.90;;;;;;5074242;28;20382;-84
2022/10/03 03:48:21;;;;;;;;;;;11.60;99.90;;;;;;5074014;28;20015;-83
2022/10/03 03:50:55;;;;;;;;;;;11.70;99.90;;;;;;5020662;28;19932;-84
2022/10/03 03:53:26;;;;;;;;;;;11.60;99.90;;;;;;5075614;28;19964;-84
2022/10/03 03:55:53;;;;;;;;;;;11.60;99.90;;;;;;5073880;28;19913;-84
2022/10/03 03:58:24;;;;;;;;;;;11.60;99.90;;;;;;5074245;28;19908;-84
2022/10/03 04:01:05;;;;;;;;;;;11.60;99.90;;;;;;5075340;28;20030;-84
2022/10/03 04:03:33;;;;;;;;;;;11.60;99.90;;;;;;5074170;28;19913;-84
2022/10/03 04:06:02;;;;;;;;;;;11.60;99.90;;;;;;5073819;28;19908;-84
2022/10/03 04:08:59;;;;;;;;;;;11.50;99.90;;;;;;5073982;28;20295;-83
2022/10/03 04:11:45;;;;;;;;;;;11.50;99.90;;;;;;5072341;28;19995;-84
2022/10/03 04:14:33;;;;;;;;;;;11.50;99.90;;;;;;5073883;28;19935;-84
2022/10/03 04:19:49;;;;;;;;;;;11.40;99.90;;;;;;5075164;28;19954;-83
2022/10/03 04:22:28;;;;;;;;;;;11.40;99.90;;;;;;5073779;28;20279;-84
2022/10/03 04:24:55;;;;;;;;;;;11.40;99.90;;;;;;5073788;28;20052;-84
2022/10/03 04:27:29;;;;;;;;;;;11.30;99.90;;;;;;5074706;28;20405;-84
2022/10/03 04:29:57;;;;;;;;;;;11.30;99.90;;;;;;5073868;28;19913;-85
2022/10/03 04:32:39;;;;;;;;;;;11.30;99.90;;;;;;5073427;28;19934;-84
2022/10/03 04:35:14;;;;;;;;;;;11.30;99.90;;;;;;5074963;28;19952;-84
2022/10/03 04:37:39;;;;;;;;;;;11.20;99.90;;;;;;5073138;28;19912;-85
2022/10/03 04:40:24;;;;;;;;;;;11.10;99.90;;;;;;5074927;28;19978;-84
2022/10/03 04:42:59;;;;;;;;;;;11.10;99.90;;;;;;5073225;28;19920;-85
2022/10/03 04:45:30;;;;;;;;;;;11.10;99.90;;;;;;5073348;28;19908;-84
2022/10/03 04:48:05;;;;;;;;;;;11.00;99.90;;;;;;5073275;28;20466;-84
2022/10/03 04:50:33;;;;;;;;;;;11.10;99.90;;;;;;5072843;28;20439;-84
2022/10/03 04:53:22;;;;;;;;;;;11.00;99.90;;;;;;5072577;28;20384;-84
2022/10/03 04:55:51;;;;;;;;;;;11.00;99.90;;;;;;5072209;28;19930;-84
2022/10/03 04:58:22;;;;;;;;;;;11.00;99.90;;;;;;5072744;28;19908;-84
2022/10/03 05:01:00;;;;;;;;;;;11.10;99.90;;;;;;5073766;28;19909;-84
2022/10/03 05:03:42;;;;;;;;;;;11.10;99.90;;;;;;5072433;28;19909;-84
2022/10/03 05:06:07;;;;;;;;;;;11.10;99.90;;;;;;5072337;28;20347;-84
2022/10/03 05:08:48;;;;;;;;;;;11.10;99.90;;;;;;5072486;28;19951;-84
2022/10/03 05:11:29;;;;;;;;;;;11.00;99.90;;;;;;5072376;28;19991;-83
2022/10/03 05:14:12;;;;;;;;;;;11.00;99.90;;;;;;5073472;28;20285;-85
2022/10/03 05:16:45;;;;;;;;;;;10.90;99.90;;;;;;5073565;28;20592;-85
2022/10/03 05:19:30;;;;;;;;;;;10.90;99.90;;;;;;5072483;28;19908;-85
2022/10/03 05:22:02;;;;;;;;;;;10.90;99.90;;;;;;5072333;28;19909;-85
2022/10/03 05:24:27;;;;;;;;;;;10.90;99.90;;;;;;5072514;28;20387;-85
2022/10/03 05:26:53;;;;;;;;;;;10.80;99.90;;;;;;5072390;28;19990;-86
2022/10/03 05:29:38;;;;;;;;;;;10.70;99.90;;;;;;5072334;28;19958;-85
2022/10/03 05:32:04;;;;;;;;;;;10.70;99.90;;;;;;5074324;28;19909;-85
2022/10/03 05:34:40;;;;;;;;;;;10.70;99.90;;;;;;5073626;28;19912;-85
2022/10/03 05:37:29;;;;;;;;;;;10.60;99.90;;;;;;5072684;28;19931;-86
2022/10/03 05:40:00;;;;;;;;;;;10.60;99.90;;;;;;5071984;28;19908;-85
2022/10/03 05:42:25;;;;;;;;;;;10.60;99.90;;;;;;5072185;28;19916;-85
2022/10/03 05:45:00;;;;;;;;;;;10.60;99.90;;;;;;5073766;28;19938;-85
2022/10/03 05:47:47;;;;;;;;;;;10.60;99.90;;;;;;5072445;28;19915;-85
2022/10/03 05:50:31;;;;;;;;;;;10.60;99.90;;;;;;5073732;28;20257;-86
2022/10/03 05:53:05;;;;;;;;;;;10.60;99.90;;;;;;5072263;28;19958;-86
2022/10/03 05:55:49;;;;;;;;;;;10.60;99.90;;;;;;5071880;28;19909;-86
2022/10/03 05:58:26;;;;;;;;;;;10.60;99.90;;;;;;5072333;28;20376;-86
2022/10/03 06:00:57;;;;;;;;;;;10.60;99.90;;;;;;5072120;28;19908;-85
2022/10/03 06:03:46;;;;;;;;;;;10.70;99.90;;;;;;5072172;28;19954;-86
2022/10/03 06:06:19;;;;;;;;;;;10.70;99.90;;;;;;5025664;28;19909;-86
2022/10/03 06:08:48;;;;;;;;;;;10.80;99.90;;;;;;5071527;28;20042;-87
2022/10/03 06:11:33;;;;;;;;;;;10.80;99.90;;;;;;5071813;28;19909;-85
2022/10/03 06:14:08;;;;;;;;;;;10.80;99.90;;;;;;5059763;28;19920;-85
2022/10/03 06:16:57;;;;;;;;;;;11.00;99.90;;;;;;5051544;28;20003;-85
2022/10/03 06:19:42;;;;;;;;;;;11.10;99.90;;;;;;5015040;28;19970;-86
2022/10/03 06:22:07;;;;;;;;;;;11.10;99.90;;;;;;5052225;28;19920;-86
2022/10/03 06:24:51;;;;;;;;;;;11.20;99.90;;;;;;5052403;28;19909;-86
2022/10/03 06:27:41;;;;;;;;;;;11.20;99.90;;;;;;5051670;28;20008;-86
2022/10/03 06:30:10;;;;;;;;;;;11.40;99.90;;;;;;5051944;28;20362;-85
2022/10/03 06:32:49;;;;;;;;;;;11.50;99.90;;;;;;5051898;28;19948;-85
2022/10/03 06:35:15;;;;;;;;;;;11.60;99.90;;;;;;5051632;28;19913;-85
2022/10/03 06:37:55;;;;;;;;;;;11.70;99.90;;;;;;5051580;28;20383;-86
2022/10/03 06:40:38;;;;;;;;;;;11.80;99.90;;;;;;5053132;28;19909;-85
2022/10/03 06:43:23;;;;;;;;;;;11.90;99.90;;;;;;5067322;28;19923;-86
2022/10/03 06:45:49;;;;;;;;;;;12.10;99.90;;;;;;5072559;28;19908;-85
2022/10/03 06:48:32;;;;;;;;;;;12.20;99.90;;;;;;5064843;28;19916;-86
2022/10/03 06:50:58;;;;;;;;;;;12.30;99.90;;;;;;5071169;28;19920;-86
2022/10/03 06:53:39;;;;;;;;;;;12.40;99.90;;;;;;5071211;28;19912;-85
2022/10/03 06:56:22;;;;;;;;;;;12.60;99.90;;;;;;5071272;28;20310;-85
2022/10/03 06:58:57;;;;;;;;;;;12.90;99.90;;;;;;5071207;28;20026;-85
2022/10/03 07:01:34;;;;;;;;;;;13.00;99.90;;;;;;5072494;28;19908;-84
2022/10/03 07:04:12;;;;;;;;;;;13.00;99.90;;;;;;5071226;28;19909;-83
2022/10/03 07:06:56;;;;;;;;;;;13.10;99.90;;;;;;5072063;28;19915;-85
2022/10/03 07:09:43;;;;;;;;;;;13.20;99.90;;;;;;5070791;28;19938;-86
2022/10/03 07:12:30;;;;;;;;;;;13.40;99.90;;;;;;5072060;28;20286;-85
2022/10/03 07:15:01;;;;;;;;;;;13.60;99.90;;;;;;5071981;28;20364;-85
2022/10/03 07:17:37;;;;;;;;;;;13.80;99.90;;;;;;5071826;28;19928;-85
2022/10/03 07:20:09;;;;;;;;;;;14.00;99.90;;;;;;5073807;28;20020;-86
2022/10/03 07:22:41;;;;;;;;;;;14.20;99.90;;;;;;5074429;28;19912;-85
2022/10/03 07:25:25;;;;;;;;;;;14.40;99.90;;;;;;5074331;28;19916;-85
2022/10/03 07:27:53;;;;;;;;;;;14.50;99.90;;;;;;5074205;28;20005;-85
2022/10/03 07:30:20;;;;;;;;;;;14.60;99.90;;;;;;5074314;28;20275;-86
2022/10/03 07:33:04;;;;;;;;;;;14.50;99.90;;;;;;5074182;28;19908;-85
2022/10/03 07:38:56;;;;;;;;;;;14.50;99.90;;;;;;5074013;28;19912;-86
2022/10/03 07:38:58;;;;;;;;;;;14.40;99.90;;;;;;5075342;28;19908;-86
2022/10/03 07:41:31;;;;;;;;;;;14.40;99.90;;;;;;5108336;22;19926;-85
2022/10/03 07:43:59;;;;;;;;;;;14.40;99.90;;;;;;5036504;28;20402;-86
2022/10/03 07:46:31;;;;;;;;;;;14.50;99.90;;;;;;5025776;28;19981;-85
2022/10/03 07:49:03;;;;;;;;;;;14.40;99.90;;;;;;5027459;28;20012;-86
2022/10/03 07:51:29;;;;;;;;;;;14.40;99.90;;;;;;5033744;28;19967;-86
2022/10/03 07:54:13;;;;;;;;;;;14.40;99.90;;;;;;5028208;28;19961;-86
2022/10/03 07:56:38;;;;;;;;;;;14.50;99.90;;;;;;5014822;28;19949;-86
2022/10/03 07:59:23;;;;;;;;;;;14.50;99.90;;;;;;5015055;28;20399;-85
2022/10/03 08:02:20;;;;;;;;;;;14.60;99.90;;;;;;5014893;28;19914;-86
2022/10/03 08:05:04;;;;;;;;;;;14.70;99.90;;;;;;5031583;28;19913;-85
2022/10/03 08:07:40;;;;;;;;;;;14.80;99.90;;;;;;5031176;28;19913;-86
2022/10/03 08:10:15;;;;;;;;;;;15.10;99.90;;;;;;5031995;28;19910;-85
2022/10/03 08:12:57;;;;;;;;;;;15.30;99.90;;;;;;5015349;28;19926;-85
2022/10/03 08:15:33;;;;;;;;;;;15.50;99.90;;;;;;5016339;28;19967;-86
2022/10/03 08:18:02;;;;;;;;;;;15.60;99.90;;;;;;5031495;28;19909;-86
2022/10/03 08:20:46;;;;;;;;;;;15.70;99.90;;;;;;5014644;28;20369;-86
2022/10/03 08:23:32;;;;;;;;;;;15.80;99.90;;;;;;5014681;28;20266;-85
2022/10/03 08:26:27;;;;;;;;;;;15.80;99.90;;;;;;5030431;28;19948;-84
2022/10/03 08:29:02;;;;;;;;;;;15.90;99.90;;;;;;5030619;28;19910;-87
2022/10/03 08:31:46;;;;;;;;;;;15.90;99.90;;;;;;5012733;28;19913;-87
2022/10/03 08:34:21;;;;;;;;;;;16.00;99.90;;;;;;5013933;28;20011;-86
2022/10/03 08:37:05;;;;;;;;;;;16.00;99.90;;;;;;5014715;28;19910;-87
2022/10/03 08:39:48;;;;;;;;;;;16.10;99.90;;;;;;5013706;28;19916;-87
2022/10/03 08:42:32;;;;;;;;;;;16.20;99.90;;;;;;5013457;28;20012;-86
2022/10/03 08:44:58;;;;;;;;;;;16.20;99.90;;;;;;5013520;28;20288;-87
2022/10/03 08:47:40;;;;;;;;;;;16.30;99.90;;;;;;5014076;28;19988;-85
2022/10/03 08:50:17;;;;;;;;;;;16.40;99.90;;;;;;5014482;28;19913;-85
2022/10/03 08:53:09;;;;;;;;;;;16.30;99.90;;;;;;5027904;28;19920;-90
2022/10/03 08:55:47;;;;;;;;;;;16.30;99.90;;;;;;5008834;28;19914;-86
2022/10/03 08:58:13;;;;;;;;;;;16.30;99.90;;;;;;5016036;28;19910;-86
2022/10/03 09:00:51;;;;;;;;;;;16.30;99.90;;;;;;5014323;28;20583;-86
2022/10/03 09:03:20;;;;;;;;;;;16.40;99.90;;;;;;5015695;28;19909;-85
2022/10/03 09:06:07;;;;;;;;;;;16.50;99.90;;;;;;5012222;28;19909;-86
2022/10/03 09:08:44;;;;;;;;;;;16.50;99.90;;;;;;5013075;28;20046;-85
2022/10/03 09:11:28;;;;;;;;;;;16.60;99.90;;;;;;5029338;28;19917;-86
2022/10/03 09:13:57;;;;;;;;;;;16.60;99.90;;;;;;5025139;28;19921;-86
2022/10/03 09:16:37;;;;;;;;;;;16.60;99.90;;;;;;5011403;28;19916;-86
2022/10/03 09:19:15;;;;;;;;;;;16.70;99.90;;;;;;5012865;28;19959;-88
2022/10/03 09:21:43;;;;;;;;;;;16.70;99.90;;;;;;5132615;22;19929;-86
2022/10/03 09:24:28;;;;;;;;;;;16.70;99.90;;;;;;5035823;28;19913;-86
2022/10/03 09:27:02;;;;;;;;;;;16.80;99.90;;;;;;5033666;28;19916;-86
2022/10/03 09:29:31;;;;;;;;;;;16.80;99.90;;;;;;5035511;28;19916;-86
2022/10/03 09:32:03;;;;;;;;;;;16.90;99.90;;;;;;5036038;28;19909;-87
2022/10/03 09:34:47;;;;;;;;;;;17.00;99.90;;;;;;5016737;28;19917;-86
2022/10/03 09:37:18;;;;;;;;;;;17.10;99.90;;;;;;5015901;28;20303;-86
2022/10/03 09:40:03;;;;;;;;;;;17.10;99.90;;;;;;5016377;28;19909;-87
2022/10/03 09:42:35;;;;;;;;;;;17.10;99.90;;;;;;5016761;28;19909;-85
2022/10/03 09:45:09;;;;;;;;;;;17.20;99.90;;;;;;5035048;28;19919;-86
2022/10/03 09:47:43;;;;;;;;;;;17.30;99.90;;;;;;5018723;28;19913;-87
2022/10/03 09:50:08;;;;;;;;;;;17.30;99.90;;;;;;5025072;28;20056;-84
2022/10/03 09:52:34;;;;;;;;;;;17.50;99.90;;;;;;5016198;28;19909;-85
2022/10/03 09:55:00;;;;;;;;;;;18.00;99.90;;;;;;5015838;28;19959;-86
2022/10/03 09:57:44;;;;;;;;;;;19.00;99.90;;;;;;5015648;28;19915;-86
2022/10/03 10:00:13;;;;;;;;;;;19.60;99.90;;;;;;5017219;28;19916;-87
2022/10/03 10:02:57;;;;;;;;;;;19.20;99.90;;;;;;5037935;28;19920;-86
2022/10/03 10:05:50;;;;;;;;;;;19.00;99.90;;;;;;5020089;28;19909;-85
2022/10/03 10:08:37;;;;;;;;;;;18.70;99.90;;;;;;5017445;28;20321;-86
2022/10/03 10:11:05;;;;;;;;;;;18.50;99.90;;;;;;5017507;28;19916;-86
2022/10/03 10:13:31;;;;;;;;;;;18.40;99.90;;;;;;5033813;28;19917;-85
2022/10/03 10:16:12;;;;;;;;;;;18.20;99.90;;;;;;5027461;28;19932;-85
2022/10/03 10:18:50;;;;;;;;;;;18.20;99.90;;;;;;5051687;28;19909;-86
2022/10/03 10:21:24;;;;;;;;;;;18.30;99.90;;;;;;5035605;28;19913;-85
2022/10/03 10:23:50;;;;;;;;;;;18.30;99.90;;;;;;5035837;28;19920;-85
2022/10/03 10:26:18;;;;;;;;;;;18.30;99.90;;;;;;5036496;28;20368;-86
2022/10/03 10:28:44;;;;;;;;;;;18.30;99.90;;;;;;5035296;28;19954;-86
2022/10/03 10:31:13;;;;;;;;;;;18.20;99.90;;;;;;5041372;28;19909;-86
2022/10/03 10:33:59;;;;;;;;;;;18.30;99.90;;;;;;5036068;28;19912;-86
2022/10/03 10:36:43;;;;;;;;;;;18.40;99.90;;;;;;5036081;28;19917;-86
2022/10/03 10:39:21;;;;;;;;;;;18.60;99.90;;;;;;5036845;28;19909;-86
2022/10/03 10:42:09;;;;;;;;;;;18.70;99.90;;;;;;5037610;28;20029;-86
2022/10/03 10:44:34;;;;;;;;;;;18.60;99.90;;;;;;5051316;28;19944;-86
2022/10/03 10:47:03;;;;;;;;;;;18.80;99.90;;;;;;5050256;28;19908;-86
2022/10/03 10:49:28;;;;;;;;;;;19.00;99.90;;;;;;5050299;28;19909;-85
2022/10/03 10:52:07;;;;;;;;;;;19.20;99.90;;;;;;5053537;28;19943;-86
2022/10/03 10:54:51;;;;;;;;;;;19.30;99.90;;;;;;5042725;28;19935;-85
2022/10/03 10:57:23;;;;;;;;;;;19.40;99.90;;;;;;5044313;28;19909;-87
2022/10/03 10:59:48;;;;;;;;;;;19.40;99.90;;;;;;5045794;28;19916;-87
2022/10/03 11:02:46;;;;;;;;;;;19.40;99.90;;;;;;5046986;28;19909;-87
2022/10/03 11:05:15;;;;;;;;;;;19.40;99.90;;;;;;5003446;28;19932;-87
2022/10/03 11:08:03;;;;;;;;;;;19.40;99.90;;;;;;5044698;28;20011;-87
2022/10/03 11:10:29;;;;;;;;;;;19.40;99.90;;;;;;5044636;28;19916;-85
2022/10/03 11:13:16;;;;;;;;;;;19.60;99.90;;;;;;5057223;28;19909;-86
2022/10/03 11:16:03;;;;;;;;;;;19.80;99.90;;;;;;5075668;28;19979;-86
2022/10/03 11:18:48;;;;;;;;;;;20.10;99.90;;;;;;5058932;28;19908;-86
2022/10/03 11:21:32;;;;;;;;;;;20.80;99.90;;;;;;5077080;28;19916;-87
2022/10/03 11:24:17;;;;;;;;;;;22.00;99.90;;;;;;5056306;28;19905;-85
2022/10/03 11:26:55;;;;;;;;;;;23.50;99.90;;;;;;5056149;28;19909;-86
2022/10/03 11:29:39;;;;;;;;;;;23.20;99.90;;;;;;5073499;28;19935;-86
2022/10/03 11:32:08;;;;;;;;;;;22.80;99.90;;;;;;5074907;28;19927;-86
2022/10/03 11:34:33;;;;;;;;;;;22.20;99.90;;;;;;5056039;28;19917;-87
2022/10/03 11:36:59;;;;;;;;;;;21.80;99.90;;;;;;5041758;28;20023;-87
2022/10/03 11:39:37;;;;;;;;;;;21.50;99.90;;;;;;5043625;28;20000;-86
2022/10/03 11:42:09;;;;;;;;;;;21.40;99.90;;;;;;5060940;28;20275;-85
2022/10/03 11:45:01;;;;;;;;;;;21.20;99.90;;;;;;5037998;28;20425;-86
2022/10/03 11:47:37;;;;;;;;;;;21.00;99.90;;;;;;5034088;28;20390;-86
2022/10/03 11:50:15;;;;;;;;;;;20.80;99.90;;;;;;5046872;28;20430;-86
2022/10/03 11:52:49;;;;;;;;;;;20.60;99.90;;;;;;5039421;28;19912;-87
2022/10/03 11:55:23;;;;;;;;;;;20.60;99.90;;;;;;5051550;28;19901;-86
2022/10/03 11:58:07;;;;;;;;;;;20.70;99.90;;;;;;5037441;28;20392;-87
2022/10/03 12:00:34;;;;;;;;;;;21.00;99.90;;;;;;5057786;28;20115;-87
2022/10/03 12:03:18;;;;;;;;;;;21.10;99.90;;;;;;5065491;28;19912;-87
2022/10/03 12:08:55;;;;;;;;;;;21.00;99.90;;;;;;5066136;28;19916;-85
2022/10/03 12:11:40;;;;;;;;;;;21.00;99.90;;;;;;5057550;28;19943;-87
2022/10/03 12:14:11;;;;;;;;;;;21.00;99.90;;;;;;5042454;28;20403;-86
2022/10/03 12:16:44;;;;;;;;;;;21.10;99.90;;;;;;5044110;28;19909;-87
2022/10/03 12:19:21;;;;;;;;;;;21.30;99.90;;;;;;5059502;28;19966;-87
2022/10/03 12:21:54;;;;;;;;;;;21.40;99.90;;;;;;5041642;28;20008;-86
2022/10/03 12:24:20;;;;;;;;;;;21.30;99.90;;;;;;5039151;28;19936;-87
2022/10/03 12:26:53;;;;;;;;;;;21.20;99.90;;;;;;5041555;28;19939;-86
2022/10/03 12:29:20;;;;;;;;;;;21.00;99.90;;;;;;5058033;28;19915;-87
2022/10/03 12:31:54;;;;;;;;;;;21.10;99.90;;;;;;5059607;28;20008;-87
2022/10/03 12:34:36;;;;;;;;;;;21.00;99.90;;;;;;5065090;28;19928;-87
2022/10/03 12:37:14;;;;;;;;;;;21.10;99.90;;;;;;5046961;28;19908;-87
2022/10/03 12:39:40;;;;;;;;;;;21.20;99.90;;;;;;5054385;28;20095;-87
2022/10/03 12:42:25;;;;;;;;;;;21.10;99.90;;;;;;5048756;28;19909;-86
2022/10/03 12:44:58;;;;;;;;;;;21.20;99.90;;;;;;5044160;28;19957;-87
2022/10/03 12:47:27;;;;;;;;;;;21.40;99.90;;;;;;5064068;28;19987;-88
2022/10/03 12:50:10;;;;;;;;;;;21.70;99.90;;;;;;5048421;28;20015;-87
2022/10/03 12:52:58;;;;;;;;;;;22.00;99.90;;;;;;5042360;28;20453;-86
2022/10/03 12:55:33;;;;;;;;;;;21.80;99.90;;;;;;5005616;28;19917;-86
2022/10/03 12:58:01;;;;;;;;;;;21.80;99.90;;;;;;5065156;28;19909;-86
2022/10/03 13:00:27;;;;;;;;;;;21.60;99.90;;;;;;5055461;28;19920;-86
2022/10/03 13:03:01;;;;;;;;;;;21.30;99.90;;;;;;5021152;28;20291;-86
2022/10/03 13:05:30;;;;;;;;;;;21.00;99.90;;;;;;5038776;28;19967;-85
2022/10/03 13:08:07;;;;;;;;;;;20.80;99.90;;;;;;5019330;28;20382;-86
2022/10/03 13:10:41;;;;;;;;;;;21.00;99.90;;;;;;5023401;28;19955;-87
2022/10/03 13:13:25;;;;;;;;;;;21.40;99.90;;;;;;5022733;28;19992;-86
2022/10/03 13:16:09;;;;;;;;;;;21.50;99.90;;;;;;5036897;28;20011;-86
2022/10/03 13:18:41;;;;;;;;;;;22.00;99.90;;;;;;5020917;28;19909;-87
2022/10/03 13:21:26;;;;;;;;;;;22.60;99.90;;;;;;5023302;28;19909;-87
2022/10/03 13:23:56;;;;;;;;;;;23.40;99.90;;;;;;5021212;28;19917;-87
2022/10/03 13:26:44;;;;;;;;;;;23.30;99.90;;;;;;5025377;28;19963;-87
2022/10/03 13:29:30;;;;;;;;;;;22.70;99.90;;;;;;5079422;28;20048;-86
2022/10/03 13:32:08;;;;;;;;;;;22.10;99.90;;;;;;5012469;28;19913;-87
2022/10/03 13:34:52;;;;;;;;;;;21.70;99.90;;;;;;5051976;28;19901;-87
2022/10/03 13:37:41;;;;;;;;;;;21.30;99.90;;;;;;5052197;28;19919;-87
2022/10/03 13:40:11;;;;;;;;;;;21.20;99.90;;;;;;5046107;28;20022;-87
2022/10/03 13:42:39;;;;;;;;;;;20.80;99.90;;;;;;5049266;28;19940;-86
2022/10/03 13:45:12;;;;;;;;;;;20.70;99.90;;;;;;5046251;28;19909;-87
2022/10/03 13:48:15;;;;;;;;;;;20.70;99.90;;;;;;5043613;28;20007;-88
2022/10/03 13:50:46;;;;;;;;;;;20.40;99.90;;;;;;5036538;28;19916;-87
2022/10/03 13:53:35;;;;;;;;;;;20.30;99.90;;;;;;5036052;28;19909;-86
2022/10/03 13:56:20;;;;;;;;;;;20.50;99.90;;;;;;5042155;28;21885;-87
2022/10/03 13:58:49;;;;;;;;;;;21.00;99.90;;;;;;5076602;22;19987;-82
2022/10/03 14:01:34;;;;;;;;;;;22.40;99.90;;;;;;5029110;28;19920;-82
2022/10/03 14:04:04;;;;;;;;;;;24.20;99.90;;;;;;5029268;28;19918;-82
2022/10/03 14:06:30;;;;;;;;;;;25.00;99.90;;;;;;5030801;28;19909;-81
2022/10/03 14:08:58;;;;;;;;;;;24.50;98.20;;;;;;5029520;28;20444;-82
2022/10/03 14:11:47;;;;;;;;;;;24.50;98.50;;;;;;5013656;28;19972;-80
2022/10/03 14:14:39;;;;;;;;;;;24.70;97.90;;;;;;5005233;28;20373;-80
2022/10/03 14:17:14;;;;;;;;;;;24.70;96.20;;;;;;4989189;28;19924;-83
2022/10/03 14:20:00;;;;;;;;;;;24.30;97.40;;;;;;5012874;28;19917;-84
2022/10/03 14:22:25;;;;;;;;;;;25.20;94.90;;;;;;5013481;28;20281;-84
2022/10/03 14:24:51;;;;;;;;;;;27.30;92.70;;;;;;5012924;28;19909;-82
2022/10/03 14:27:30;;;;;;;;;;;29.10;83.20;;;;;;5015494;28;19924;-82
2022/10/03 14:30:05;;;;;;;;;;;30.00;76.90;;;;;;5012316;28;19932;-83
2022/10/03 14:32:44;;;;;;;;;;;30.30;70.20;;;;;;5014182;28;19910;-82
2022/10/03 14:35:18;;;;;;;;;;;29.90;68.70;;;;;;5015614;28;19914;-83
2022/10/03 14:37:47;;;;;;;;;;;30.00;65.20;;;;;;5015880;28;19914;-83
2022/10/03 14:40:29;;;;;;;;;;;30.40;63.50;;;;;;5013414;28;19975;-84
2022/10/03 14:43:07;;;;;;;;;;;29.30;63.60;;;;;;5031654;28;20338;-85
2022/10/03 14:45:37;;;;;;;;;;;27.80;65.50;;;;;;5031007;28;19913;-85
2022/10/03 14:48:06;;;;;;;;;;;26.70;67.10;;;;;;5031775;28;20011;-82
2022/10/03 14:50:32;;;;;;;;;;;26.50;70.10;;;;;;5032411;28;19909;-82
2022/10/03 14:53:13;;;;;;;;;;;26.20;72.30;;;;;;5032936;28;19913;-83
2022/10/03 14:55:52;;;;;;;;;;;25.70;74.10;;;;;;5032697;28;19920;-83
2022/10/03 14:58:22;;;;;;;;;;;25.40;74.40;;;;;;5039929;28;19910;-85
2022/10/03 15:00:48;;;;;;;;;;;24.80;76.70;;;;;;5038609;28;19913;-83
2022/10/03 15:03:19;;;;;;;;;;;24.40;79.70;;;;;;5036359;28;20284;-84
2022/10/03 15:06:20;;;;;;;;;;;23.90;80.00;;;;;;5033510;28;19909;-83
2022/10/03 15:08:53;;;;;;;;;;;23.70;84.80;;;;;;4957016;28;19918;-83
2022/10/03 15:11:22;;;;;;;;;;;23.30;84.50;;;;;;5039583;28;19909;-84
2022/10/03 15:13:52;;;;;;;;;;;22.90;88.30;;;;;;5025022;28;19917;-84
2022/10/03 15:16:19;;;;;;;;;;;22.60;90.20;;;;;;5027020;28;20047;-85
2022/10/03 15:18:50;;;;;;;;;;;22.40;89.60;;;;;;5030333;28;19917;-83